Danali, Honduras
Current Conditions -  °F | °C
As of 1:00 AM on Wednesday 26 Nov 2014 (Local Time) from MHTG Reporting Station
Broken Clouds Broken Clouds  
Wind Chill: 21°   Ceiling: 2600
Heat Index: 21°   Visibility: 6mi
Dew Point: 19°   Wind: 9mph
Humidity: 88%   Direction: 350°N
Pressure: 30.09"   Gusts: NA
Location:  14.02°N, 86.3°W
Report Text: MHTG 260700Z 35008KT 9999 BKN026 SCT090 21/19 Q1019 A3009NOSIG
Loading
Personal Weather Stations






























Interactive Weather Map New forecast layout! Learn more

10-Day Weather Forecast

Advertisements
Track Severe Weather on mobile